Robbinston, Maine
Current Conditions -  °F | °C
As of 11:00 AM on Wednesday 22 Oct 2014 (Local Time) from CYFC Reporting Station
Broken Clouds Broken Clouds  
Wind Chill: 54°   Ceiling: 9500
Heat Index: 54°   Visibility: 9mi
Dew Point: 41°   Wind: 21mph
Humidity: 62%   Direction: 60°ENE
Pressure: 30.32"   Gusts: 30mph
Location:  45.08°N, 67.11°W
Report Text: CYFC 221500Z AUTO 06018G26KT 9SM BKN095 BKN160 12/05 A3032 RMK SLP267
Loading
Personal Weather Stations






























Interactive Weather Map
Tropical Storm Tracking
New forecast layout! Learn more

10-Day Weather Forecast

Advertisements
Track Severe Weather on mobile